Time;durP1;ratioP1;P1;durP2;ratioP2;P2;SDS_P1;SDS_P2;PMS_P1;PMS_P2;Temp;Humidity;BMP_temperature;BMP_pressure;BME280_temperature;BME280_humidity;BME280_pressure;Samples;Min_cycle;Max_cycle;Signal;HPM_P1;HPM_P2
2023/12/10 00:00:06;;;;;;;28.53;3.83;;;10.50;99.90;;;;;;5029210;28;20304;-72
2023/12/10 00:02:32;;;;;;;33.07;3.93;;;10.20;99.90;;;;;;5026701;28;20198;-74
2023/12/10 00:04:58;;;;;;;25.07;3.93;;;;;;;;;;5022024;28;20182;-75
2023/12/10 00:07:24;;;;;;;25.57;3.87;;;10.30;99.90;;;;;;5011196;28;20182;-74
2023/12/10 00:09:50;;;;;;;20.53;3.30;;;10.40;99.90;;;;;;5033444;28;20220;-73
2023/12/10 00:12:16;;;;;;;24.00;3.33;;;10.30;99.90;;;;;;5032697;28;20922;-73
2023/12/10 00:14:42;;;;;;;25.40;4.03;;;;;;;;;;5034046;28;20214;-74
2023/12/10 00:17:08;;;;;;;23.67;3.43;;;10.30;99.90;;;;;;5028748;28;20188;-74
2023/12/10 00:19:34;;;;;;;28.30;3.90;;;;;;;;;;5027091;28;20297;-76
2023/12/10 00:22:00;;;;;;;30.13;3.90;;;10.40;99.90;;;;;;5029186;28;20174;-75
2023/12/10 00:24:26;;;;;;;30.33;4.03;;;;;;;;;;5025734;28;20178;-76
2023/12/10 00:26:52;;;;;;;25.20;4.10;;;10.30;99.90;;;;;;5028548;28;20173;-75
2023/12/10 00:29:18;;;;;;;24.30;3.00;;;;;;;;;;5024900;28;20182;-76
2023/12/10 00:31:44;;;;;;;23.77;3.50;;;10.50;99.90;;;;;;5028466;28;20703;-76
2023/12/10 00:34:10;;;;;;;28.50;3.70;;;10.60;99.90;;;;;;5007128;28;20224;-76
2023/12/10 00:36:36;;;;;;;27.10;3.23;;;10.60;99.90;;;;;;5028519;28;20586;-76
2023/12/10 00:39:06;;;;;;;28.03;3.23;;;10.70;99.90;;;;;;5029119;28;20554;-76
2023/12/10 00:41:32;;;;;;;25.80;3.47;;;10.70;99.90;;;;;;5019717;28;20715;-74
2023/12/10 00:43:58;;;;;;;25.40;3.20;;;;;;;;;;5025272;28;20265;-75
2023/12/10 00:46:24;;;;;;;16.67;3.10;;;10.50;99.90;;;;;;5026782;28;20228;-74
2023/12/10 00:48:49;;;;;;;27.70;3.60;;;10.20;99.90;;;;;;5027070;28;20587;-75
2023/12/10 00:51:19;;;;;;;27.70;3.53;;;10.30;99.90;;;;;;5025686;28;20692;-75
2023/12/10 00:53:46;;;;;;;26.73;3.17;;;;;;;;;;5027655;28;20182;-74
2023/12/10 00:56:12;;;;;;;26.27;3.73;;;;;;;;;;5024947;28;20268;-75
2023/12/10 00:58:38;;;;;;;20.60;3.17;;;;;;;;;;5027710;28;20205;-74
2023/12/10 01:01:04;;;;;;;23.23;2.83;;;;;;;;;;5027794;28;20217;-75
2023/12/10 01:03:30;;;;;;;26.13;3.63;;;;;;;;;;5031503;28;20265;-75
2023/12/10 01:05:56;;;;;;;19.10;3.00;;;10.40;99.90;;;;;;5023713;28;20210;-75
2023/12/10 01:08:22;;;;;;;28.97;3.43;;;;;;;;;;5031351;28;20206;-75
2023/12/10 01:10:48;;;;;;;25.03;3.57;;;;;;;;;;5020642;28;20179;-76
2023/12/10 01:13:14;;;;;;;29.60;3.47;;;10.10;99.90;;;;;;5027599;28;20178;-75
2023/12/10 01:15:40;;;;;;;28.90;3.93;;;;;;;;;;5026173;28;20645;-74
2023/12/10 01:18:06;;;;;;;22.27;3.50;;;;;;;;;;5025603;28;20174;-75
2023/12/10 01:20:33;;;;;;;25.57;3.40;;;10.20;99.90;;;;;;5028411;28;20180;-74
2023/12/10 01:23:00;;;;;;;16.00;2.43;;;10.30;99.90;;;;;;5009285;28;20185;-75
2023/12/10 01:25:26;;;;;;;18.80;2.70;;;10.50;99.90;;;;;;5026710;28;20217;-75
2023/12/10 01:27:53;;;;;;;16.70;2.93;;;10.20;99.90;;;;;;5010230;28;20185;-74
2023/12/10 01:30:29;;;;;;;22.37;3.20;;;10.10;99.90;;;;;;5030872;28;20182;-77
2023/12/10 01:32:58;;;;;;;30.83;4.20;;;10.30;99.90;;;;;;5024058;28;20178;-76
2023/12/10 01:35:24;;;;;;;22.30;3.13;;;;;;;;;;5027110;28;20835;-76
2023/12/10 01:37:50;;;;;;;17.93;2.50;;;10.30;99.90;;;;;;5019996;28;20704;-75
2023/12/10 01:40:16;;;;;;;19.93;2.70;;;10.30;99.90;;;;;;5027777;28;20218;-75
2023/12/10 01:42:44;;;;;;;13.67;2.70;;;10.20;99.90;;;;;;5022477;28;20185;-75
2023/12/10 01:45:10;;;;;;;24.47;3.13;;;;;;;;;;5037405;28;20169;-75
2023/12/10 01:47:41;;;;;;;22.47;3.50;;;10.30;99.90;;;;;;5023685;28;20210;-75
2023/12/10 01:50:11;;;;;;;16.60;2.67;;;10.30;99.90;;;;;;5027483;28;20178;-75
2023/12/10 01:52:38;;;;;;;17.77;2.73;;;10.20;99.90;;;;;;5029344;28;20181;-75
2023/12/10 01:55:05;;;;;;;19.60;3.40;;;10.30;99.90;;;;;;5031874;28;20174;-74
2023/12/10 01:57:34;;;;;;;14.80;2.20;;;10.30;99.90;;;;;;5013503;28;20186;-74
2023/12/10 02:00:00;;;;;;;17.10;2.33;;;10.30;99.90;;;;;;5020397;28;20213;-75
2023/12/10 02:02:27;;;;;;;16.33;1.97;;;10.20;99.90;;;;;;5024783;28;20181;-75
2023/12/10 02:04:54;;;;;;;23.03;2.60;;;10.30;99.90;;;;;;5026428;28;20169;-75
2023/12/10 02:07:23;;;;;;;12.87;2.50;;;10.10;99.90;;;;;;5025831;28;20182;-75
2023/12/10 02:09:50;;;;;;;26.50;2.70;;;10.30;99.90;;;;;;5025853;28;20185;-75
2023/12/10 02:12:18;;;;;;;9.47;2.03;;;10.20;99.90;;;;;;5030741;28;20189;-74
2023/12/10 02:14:44;;;;;;;15.97;2.00;;;;;;;;;;5025053;28;20587;-74
2023/12/10 02:17:09;;;;;;;19.40;2.93;;;10.00;99.90;;;;;;5028278;28;20178;-74
2023/12/10 02:19:36;;;;;;;13.57;1.93;;;;;;;;;;5027518;28;20596;-73
2023/12/10 02:22:03;;;;;;;10.87;1.30;;;10.20;99.90;;;;;;5030873;28;20197;-74
2023/12/10 02:24:41;;;;;;;16.43;1.77;;;9.80;99.90;;;;;;5031881;28;20210;-74
2023/12/10 02:27:08;;;;;;;10.63;1.40;;;10.10;99.90;;;;;;5031167;28;20257;-73
2023/12/10 02:29:33;;;;;;;16.77;2.00;;;10.00;99.90;;;;;;5026037;28;20285;-74
2023/12/10 02:31:59;;;;;;;8.87;1.70;;;;;;;;;;5028625;28;20225;-74
2023/12/10 02:34:25;;;;;;;8.40;1.80;;;;;;;;;;5027024;28;20645;-73
2023/12/10 02:36:51;;;;;;;8.97;1.30;;;10.00;99.90;;;;;;5030297;28;20236;-74
2023/12/10 02:39:17;;;;;;;12.57;2.20;;;10.20;99.90;;;;;;5027529;28;20260;-74
2023/12/10 02:41:42;;;;;;;9.80;1.50;;;10.10;99.90;;;;;;5034647;28;20184;-74
2023/12/10 02:44:08;;;;;;;9.73;1.70;;;10.10;99.90;;;;;;5023736;28;20228;-75
2023/12/10 02:46:34;;;;;;;13.90;2.10;;;10.00;99.90;;;;;;5025205;28;20256;-74
2023/12/10 02:48:59;;;;;;;14.53;1.90;;;10.00;99.90;;;;;;5016453;28;20598;-75
2023/12/10 02:51:25;;;;;;;10.60;1.73;;;;;;;;;;5033554;28;20174;-74
2023/12/10 02:53:51;;;;;;;18.90;2.00;;;9.90;99.90;;;;;;5018356;28;20181;-75
2023/12/10 02:56:17;;;;;;;12.57;2.03;;;;;;;;;;5021904;28;20541;-75
2023/12/10 02:58:43;;;;;;;11.27;1.80;;;;;;;;;;5007407;28;20245;-74
2023/12/10 03:01:09;;;;;;;10.57;1.57;;;;;;;;;;5027136;28;20276;-74
2023/12/10 03:03:34;;;;;;;14.73;2.07;;;9.90;99.90;;;;;;5037132;28;20648;-74
2023/12/10 03:06:00;;;;;;;12.77;1.67;;;9.90;99.90;;;;;;5028631;28;20178;-74
2023/12/10 03:08:26;;;;;;;15.37;2.03;;;9.70;99.90;;;;;;5030757;28;20228;-74
2023/12/10 03:10:52;;;;;;;15.53;1.63;;;9.80;99.90;;;;;;5028539;28;20174;-74
2023/12/10 03:13:18;;;;;;;8.93;1.93;;;;;;;;;;5026508;28;20649;-74
2023/12/10 03:15:43;;;;;;;14.77;2.00;;;9.70;99.90;;;;;;5025973;28;20270;-74
2023/12/10 03:18:09;;;;;;;18.17;2.70;;;;;;;;;;5031848;28;20274;-73
2023/12/10 03:20:35;;;;;;;11.80;1.90;;;9.80;99.90;;;;;;5030106;28;20205;-74
2023/12/10 03:23:02;;;;;;;21.17;1.70;;;9.90;99.90;;;;;;5025785;28;20214;-74
2023/12/10 03:25:28;;;;;;;21.33;2.57;;;;;;;;;;5029344;28;20236;-74
2023/12/10 03:27:54;;;;;;;12.37;1.90;;;;;;;;;;5024888;28;20187;-75
2023/12/10 03:30:20;;;;;;;16.27;2.00;;;9.60;99.90;;;;;;5029599;28;20166;-73
2023/12/10 03:32:46;;;;;;;13.63;2.10;;;;;;;;;;5026355;28;20233;-73
2023/12/10 03:35:12;;;;;;;11.17;1.60;;;9.60;99.90;;;;;;5029513;28;20247;-73
2023/12/10 03:37:37;;;;;;;16.57;1.63;;;9.80;99.90;;;;;;5026982;28;20648;-74
2023/12/10 03:40:03;;;;;;;18.00;2.07;;;9.10;99.90;;;;;;5028260;28;20272;-74
2023/12/10 03:42:29;;;;;;;16.67;2.03;;;9.60;99.90;;;;;;5028234;28;20238;-74
2023/12/10 03:44:58;;;;;;;17.30;2.07;;;9.80;99.90;;;;;;5027173;28;20182;-74
2023/12/10 03:47:24;;;;;;;15.50;1.63;;;9.80;99.90;;;;;;5029246;28;20189;-73
2023/12/10 03:49:49;;;;;;;11.53;1.63;;;9.80;99.90;;;;;;5030203;28;20786;-74
2023/12/10 03:52:15;;;;;;;6.60;1.47;;;9.70;99.90;;;;;;5029076;28;20261;-74
2023/12/10 03:54:41;;;;;;;13.53;1.70;;;10.10;99.90;;;;;;5025324;28;20558;-74
2023/12/10 03:57:07;;;;;;;17.60;1.80;;;;;;;;;;4994741;28;20702;-74
2023/12/10 03:59:33;;;;;;;18.00;2.00;;;;;;;;;;5029662;28;20214;-74
2023/12/10 04:01:59;;;;;;;13.93;2.03;;;;;;;;;;5013091;28;20174;-74
2023/12/10 04:04:25;;;;;;;15.33;1.80;;;9.90;99.90;;;;;;5026757;28;20269;-74
2023/12/10 04:06:50;;;;;;;23.43;2.77;;;10.10;99.90;;;;;;5029251;28;20619;-74
2023/12/10 04:09:16;;;;;;;12.50;2.47;;;;;;;;;;5009923;28;20193;-75
2023/12/10 04:11:42;;;;;;;13.37;2.13;;;10.00;99.90;;;;;;5027867;28;20182;-74
2023/12/10 04:14:09;;;;;;;20.03;2.53;;;10.30;99.90;;;;;;5033739;28;20188;-74
2023/12/10 04:16:36;;;;;;;12.90;2.30;;;10.30;99.90;;;;;;5028783;28;20281;-74
2023/12/10 04:19:01;;;;;;;22.37;2.57;;;10.20;99.90;;;;;;5028346;28;20213;-74
2023/12/10 04:21:27;;;;;;;28.67;3.50;;;10.20;99.90;;;;;;5025143;28;20290;-75
2023/12/10 04:23:53;;;;;;;16.70;2.40;;;10.20;99.90;;;;;;5035700;28;20237;-74
2023/12/10 04:26:19;;;;;;;21.20;2.70;;;10.00;99.90;;;;;;5019155;28;20233;-73
2023/12/10 04:28:45;;;;;;;25.50;3.03;;;10.00;99.90;;;;;;5004924;28;20217;-72
2023/12/10 04:31:11;;;;;;;18.33;2.40;;;9.80;99.90;;;;;;5021883;28;20595;-74
2023/12/10 04:33:36;;;;;;;17.30;2.57;;;10.00;99.90;;;;;;5033941;28;20264;-74
2023/12/10 04:36:06;;;;;;;22.37;3.03;;;9.90;99.90;;;;;;5030947;28;20230;-75
2023/12/10 04:38:31;;;;;;;14.07;2.10;;;9.80;99.90;;;;;;5026428;28;20358;-75
2023/12/10 04:40:57;;;;;;;17.00;1.93;;;9.90;99.90;;;;;;5031906;28;20273;-74
2023/12/10 04:43:23;;;;;;;16.03;2.17;;;;;;;;;;5024923;28;20537;-74
2023/12/10 04:45:49;;;;;;;23.00;2.77;;;9.80;99.90;;;;;;5009696;28;20638;-74
2023/12/10 04:48:14;;;;;;;11.20;2.13;;;9.70;99.90;;;;;;5024056;28;20186;-75
2023/12/10 04:50:41;;;;;;;21.87;2.13;;;9.90;99.90;;;;;;5028131;28;20540;-74
2023/12/10 04:53:09;;;;;;;18.20;2.50;;;9.30;99.90;;;;;;5024213;28;20186;-74
2023/12/10 04:55:35;;;;;;;15.33;2.30;;;;;;;;;;5024683;28;20194;-74
2023/12/10 04:58:01;;;;;;;25.90;2.93;;;9.70;99.90;;;;;;5024127;28;20175;-74
2023/12/10 05:00:27;;;;;;;18.20;2.93;;;;;;;;;;5027231;28;20188;-74
2023/12/10 05:02:53;;;;;;;28.43;3.37;;;;;;;;;;5023125;28;20174;-74
2023/12/10 05:05:19;;;;;;;32.70;3.30;;;10.10;99.90;;;;;;5026032;28;20178;-74
2023/12/10 05:07:45;;;;;;;29.67;3.37;;;10.30;99.90;;;;;;5026896;28;20599;-73
2023/12/10 05:10:11;;;;;;;28.00;3.70;;;10.30;99.90;;;;;;5024329;28;20258;-73
2023/12/10 05:12:37;;;;;;;22.77;3.57;;;;;;;;;;5026876;28;20166;-73
2023/12/10 05:15:03;;;;;;;31.27;3.40;;;10.40;99.90;;;;;;5028432;28;20657;-74
2023/12/10 05:17:29;;;;;;;23.53;3.17;;;10.50;99.90;;;;;;5027411;28;20174;-74
2023/12/10 05:19:55;;;;;;;26.77;3.63;;;;;;;;;;5024179;28;20221;-73
2023/12/10 05:22:20;;;;;;;27.60;3.27;;;10.40;99.90;;;;;;5029809;28;20660;-73
2023/12/10 05:24:46;;;;;;;32.33;3.43;;;10.50;99.90;;;;;;5028197;28;20226;-72
2023/12/10 05:27:13;;;;;;;24.90;2.87;;;10.20;99.90;;;;;;5032278;28;20174;-74
2023/12/10 05:29:39;;;;;;;22.63;3.13;;;10.60;99.90;;;;;;5026466;28;20186;-74
2023/12/10 05:32:05;;;;;;;30.67;3.67;;;10.50;99.90;;;;;;5024825;28;20545;-74
2023/12/10 05:34:30;;;;;;;31.90;3.33;;;10.40;99.90;;;;;;5024510;28;20539;-75
2023/12/10 05:36:56;;;;;;;28.40;4.00;;;10.30;99.90;;;;;;5023928;28;20174;-74
2023/12/10 05:39:22;;;;;;;33.03;4.40;;;10.40;99.90;;;;;;5031441;28;20244;-74
2023/12/10 05:41:47;;;;;;;29.90;3.97;;;10.10;99.90;;;;;;5027012;28;20183;-73
2023/12/10 05:44:13;;;;;;;31.50;3.73;;;;;;;;;;5031671;28;20237;-75
2023/12/10 05:46:39;;;;;;;23.87;4.23;;;10.50;99.90;;;;;;5017745;28;20550;-75
2023/12/10 05:49:05;;;;;;;30.67;4.50;;;10.30;99.90;;;;;;5019603;28;20192;-74
2023/12/10 05:51:30;;;;;;;26.10;3.80;;;10.30;99.90;;;;;;5021748;28;20182;-74
2023/12/10 05:53:56;;;;;;;36.97;4.97;;;10.40;99.90;;;;;;5038350;28;20529;-75
2023/12/10 05:56:22;;;;;;;32.97;4.63;;;;;;;;;;5034469;28;20224;-74
2023/12/10 05:58:48;;;;;;;28.23;3.80;;;10.30;99.90;;;;;;5029404;28;20214;-75
2023/12/10 06:01:14;;;;;;;37.60;4.50;;;10.40;99.90;;;;;;5032005;28;20242;-74
2023/12/10 06:03:40;;;;;;;28.97;4.17;;;10.20;99.90;;;;;;5028835;28;20525;-75
2023/12/10 06:06:07;;;;;;;28.00;4.03;;;;;;;;;;5031544;28;20178;-73
2023/12/10 06:08:32;;;;;;;38.17;4.70;;;10.50;99.90;;;;;;5027632;28;20240;-74
2023/12/10 06:10:58;;;;;;;27.57;4.40;;;;;;;;;;5031270;28;20256;-74
2023/12/10 06:13:24;;;;;;;28.83;4.53;;;10.10;99.90;;;;;;5031807;28;20177;-74
2023/12/10 06:15:50;;;;;;;28.70;4.47;;;10.10;99.90;;;;;;5031144;28;20180;-74
2023/12/10 06:18:16;;;;;;;30.77;4.67;;;10.10;99.90;;;;;;5032058;28;20201;-74
2023/12/10 06:20:42;;;;;;;34.47;3.73;;;10.20;99.90;;;;;;5030584;28;20192;-73
2023/12/10 06:23:08;;;;;;;25.60;4.10;;;10.20;99.90;;;;;;5028777;28;20652;-74
2023/12/10 06:25:33;;;;;;;27.07;3.87;;;10.00;99.90;;;;;;5029884;28;20225;-75
2023/12/10 06:27:59;;;;;;;34.43;4.73;;;10.00;99.90;;;;;;5016804;28;20834;-75
2023/12/10 06:30:25;;;;;;;32.70;4.30;;;;;;;;;;5028441;28;20182;-74
2023/12/10 06:32:51;;;;;;;19.63;3.63;;;9.90;99.90;;;;;;5031226;28;20204;-74
2023/12/10 06:35:17;;;;;;;34.13;4.57;;;;;;;;;;5034706;28;20645;-74
2023/12/10 06:37:43;;;;;;;28.10;3.70;;;9.80;99.90;;;;;;5031365;28;20194;-76
2023/12/10 06:40:09;;;;;;;34.87;4.17;;;9.70;99.90;;;;;;5027104;28;20218;-74
2023/12/10 06:42:35;;;;;;;26.63;4.17;;;9.70;99.90;;;;;;5027614;28;20197;-74
2023/12/10 06:45:03;;;;;;;28.77;4.57;;;9.60;99.90;;;;;;5031365;28;20325;-74
2023/12/10 06:47:28;;;;;;;35.47;5.10;;;9.90;99.90;;;;;;5025313;28;20174;-75
2023/12/10 06:49:55;;;;;;;35.17;3.67;;;9.80;99.90;;;;;;5034444;28;20174;-74
2023/12/10 06:52:21;;;;;;;28.47;4.63;;;;;;;;;;5030959;28;20205;-74
2023/12/10 06:54:47;;;;;;;29.53;3.90;;;;;;;;;;5037741;28;20280;-75
2023/12/10 06:57:13;;;;;;;32.17;4.93;;;9.70;99.90;;;;;;5037313;28;20385;-75
2023/12/10 06:59:39;;;;;;;34.10;3.83;;;;;;;;;;5027663;28;20292;-75
2023/12/10 07:02:05;;;;;;;29.93;4.43;;;9.50;99.90;;;;;;5027651;28;20616;-75
2023/12/10 07:04:31;;;;;;;36.50;4.37;;;;;;;;;;5022385;28;20664;-75
2023/12/10 07:06:56;;;;;;;32.30;3.60;;;9.40;99.90;;;;;;5026467;28;20240;-74
2023/12/10 07:09:23;;;;;;;33.80;4.00;;;9.50;99.90;;;;;;5030469;28;20636;-74
2023/12/10 07:11:49;;;;;;;28.97;4.37;;;9.20;99.90;;;;;;5008901;28;20302;-73
2023/12/10 07:14:15;;;;;;;38.90;4.73;;;;;;;;;;5030102;28;20312;-74
2023/12/10 07:16:41;;;;;;;38.17;4.47;;;9.10;99.90;;;;;;5022345;28;20183;-75
2023/12/10 07:19:06;;;;;;;23.57;4.17;;;9.20;99.90;;;;;;5029021;28;20209;-76
2023/12/10 07:21:32;;;;;;;26.83;4.00;;;;;;;;;;5010629;28;20268;-76
2023/12/10 07:23:58;;;;;;;29.60;3.73;;;9.10;99.90;;;;;;5031707;28;20189;-75
2023/12/10 07:26:25;;;;;;;28.00;3.83;;;9.30;99.90;;;;;;5011381;28;20576;-76
2023/12/10 07:28:51;;;;;;;25.60;3.77;;;9.20;99.90;;;;;;5026102;28;20178;-75
2023/12/10 07:31:20;;;;;;;36.27;4.70;;;9.30;99.90;;;;;;5030035;28;20166;-77
2023/12/10 07:33:46;;;;;;;29.97;4.73;;;9.30;99.90;;;;;;5029321;28;20262;-76
2023/12/10 07:36:12;;;;;;;28.67;4.00;;;;;;;;;;5012167;28;20268;-76
2023/12/10 07:38:38;;;;;;;27.87;3.60;;;9.30;99.90;;;;;;5026273;28;20214;-76
2023/12/10 07:41:04;;;;;;;22.90;4.03;;;9.60;99.90;;;;;;5023044;28;20266;-76
2023/12/10 07:43:31;;;;;;;27.10;4.40;;;9.40;99.90;;;;;;5025049;28;20258;-79
2023/12/10 07:45:56;;;;;;;20.47;3.40;;;9.40;99.90;;;;;;5021278;28;20178;-77
2023/12/10 07:48:22;;;;;;;18.67;3.90;;;9.40;99.90;;;;;;5027185;28;20174;-76
2023/12/10 07:50:48;;;;;;;26.17;4.33;;;9.40;99.90;;;;;;5009260;28;20640;-76
2023/12/10 07:53:16;;;;;;;29.43;3.90;;;9.40;99.90;;;;;;5017499;28;20235;-76
2023/12/10 07:55:42;;;;;;;29.67;3.90;;;;;;;;;;5027345;28;20182;-76
2023/12/10 07:58:08;;;;;;;26.87;3.90;;;9.30;99.90;;;;;;5025995;28;20183;-76
2023/12/10 08:00:34;;;;;;;25.90;3.87;;;;;;;;;;5026106;28;20264;-76
2023/12/10 08:02:59;;;;;;;28.40;4.73;;;9.60;99.90;;;;;;5029506;28;20186;-76
2023/12/10 08:05:25;;;;;;;28.37;4.73;;;;;;;;;;5025603;28;20190;-75
2023/12/10 08:07:51;;;;;;;32.43;4.33;;;9.60;99.90;;;;;;5029226;28;20181;-74
2023/12/10 08:10:18;;;;;;;23.83;4.60;;;9.40;99.90;;;;;;5028335;28;20541;-75
2023/12/10 08:12:44;;;;;;;27.17;4.30;;;9.60;99.90;;;;;;5029643;28;20181;-75
2023/12/10 08:15:10;;;;;;;25.37;3.60;;;9.60;99.90;;;;;;5009616;28;20177;-76
2023/12/10 08:17:36;;;;;;;33.03;4.40;;;;;;;;;;5021800;28;20189;-75
2023/12/10 08:20:03;;;;;;;24.00;3.13;;;9.60;99.90;;;;;;5026825;28;20232;-76
2023/12/10 08:22:29;;;;;;;21.40;3.60;;;9.70;99.90;;;;;;5009896;28;20181;-76
2023/12/10 08:24:55;;;;;;;25.80;4.13;;;9.70;99.90;;;;;;5023272;28;20307;-75
2023/12/10 08:27:20;;;;;;;23.10;3.43;;;9.70;99.90;;;;;;5028372;28;20186;-76
2023/12/10 08:29:46;;;;;;;32.13;3.30;;;9.70;99.90;;;;;;5021871;28;20261;-75
2023/12/10 08:32:12;;;;;;;25.23;3.40;;;9.60;99.90;;;;;;5024798;28;20205;-74
2023/12/10 08:34:38;;;;;;;21.73;3.60;;;;;;;;;;5033064;28;20185;-75
2023/12/10 08:37:04;;;;;;;28.33;4.10;;;9.80;99.90;;;;;;5033095;28;20174;-74
2023/12/10 08:39:30;;;;;;;25.00;4.00;;;;;;;;;;5010909;28;20201;-76
2023/12/10 08:41:56;;;;;;;25.37;4.20;;;9.90;99.90;;;;;;5029396;28;20268;-74
2023/12/10 08:44:21;;;;;;;27.43;4.23;;;9.90;99.90;;;;;;5029026;28;20215;-74
2023/12/10 08:46:47;;;;;;;29.13;4.23;;;;;;;;;;5034212;28;20200;-75
2023/12/10 08:49:13;;;;;;;32.13;4.20;;;9.90;99.90;;;;;;5037103;28;20190;-75
2023/12/10 08:51:39;;;;;;;24.97;4.17;;;;;;;;;;5029066;28;20181;-76
2023/12/10 08:54:05;;;;;;;22.40;3.20;;;9.90;99.90;;;;;;5026968;28;20208;-75
2023/12/10 08:56:30;;;;;;;35.17;4.10;;;9.90;99.90;;;;;;5028020;28;20216;-76
2023/12/10 08:58:56;;;;;;;28.77;4.03;;;10.00;99.90;;;;;;5020636;28;20217;-77
2023/12/10 09:01:22;;;;;;;29.73;3.97;;;10.00;99.90;;;;;;5028914;28;20196;-77
2023/12/10 09:03:48;;;;;;;30.13;4.27;;;9.90;99.90;;;;;;5015692;28;20178;-76
2023/12/10 09:06:14;;;;;;;24.93;4.10;;;;;;;;;;5020819;28;20197;-75
2023/12/10 09:08:40;;;;;;;27.57;3.80;;;;;;;;;;5028882;28;20514;-78
2023/12/10 09:11:06;;;;;;;28.50;4.07;;;;;;;;;;5021897;28;20174;-77
2023/12/10 09:13:32;;;;;;;19.27;3.80;;;10.40;99.90;;;;;;5018857;28;20210;-78
2023/12/10 09:16:01;;;;;;;15.13;2.23;;;10.30;99.90;;;;;;5031228;28;20170;-78
2023/12/10 09:18:27;;;;;;;25.07;3.37;;;10.60;99.90;;;;;;5028604;28;20187;-75
2023/12/10 09:20:54;;;;;;;28.13;4.00;;;;;;;;;;5028071;28;20560;-75
2023/12/10 09:23:20;;;;;;;16.03;3.37;;;10.70;99.90;;;;;;5013154;28;20248;-76
2023/12/10 09:25:46;;;;;;;13.37;2.67;;;10.50;99.90;;;;;;5044575;28;20289;-77
2023/12/10 09:28:12;;;;;;;16.57;3.00;;;;;;;;;;5038519;28;20181;-77
2023/12/10 09:30:38;;;;;;;15.33;2.47;;;10.80;99.90;;;;;;5026682;28;20186;-74
2023/12/10 09:33:05;;;;;;;17.83;2.47;;;;;;;;;;5027487;28;20182;-76
2023/12/10 09:35:31;;;;;;;16.20;2.37;;;;;;;;;;5019273;28;20179;-76
2023/12/10 09:37:57;;;;;;;20.73;3.47;;;;;;;;;;5020376;28;20194;-76
2023/12/10 09:40:23;;;;;;;21.43;2.80;;;10.70;99.90;;;;;;5027718;28;20217;-78
2023/12/10 09:42:49;;;;;;;16.93;2.37;;;10.20;99.90;;;;;;5031457;28;20397;-78
2023/12/10 09:45:16;;;;;;;19.83;3.27;;;;;;;;;;5026747;28;20208;-77
2023/12/10 09:47:44;;;;;;;16.40;2.70;;;10.60;99.90;;;;;;5025912;28;20185;-77
2023/12/10 09:50:10;;;;;;;11.23;1.87;;;10.50;99.90;;;;;;5030173;28;20671;-77
2023/12/10 09:52:36;;;;;;;12.43;2.20;;;10.70;99.90;;;;;;5037055;28;20181;-76
2023/12/10 09:55:02;;;;;;;8.47;1.73;;;10.60;99.90;;;;;;5032232;28;20189;-76
2023/12/10 09:57:30;;;;;;;14.60;2.00;;;;;;;;;;5027504;28;20201;-81
2023/12/10 09:59:56;;;;;;;13.70;2.83;;;;;;;;;;5021836;28;20600;-78
2023/12/10 10:02:30;;;;;;;17.53;2.60;;;10.70;99.90;;;;;;5026271;28;20174;-78
2023/12/10 10:04:56;;;;;;;15.83;1.90;;;;;;;;;;5017495;28;20177;-80
2023/12/10 10:07:22;;;;;;;15.03;2.20;;;10.80;99.90;;;;;;5023107;28;20193;-77
2023/12/10 10:09:48;;;;;;;16.10;2.63;;;;;;;;;;5032772;28;20551;-76
2023/12/10 10:12:14;;;;;;;14.00;2.03;;;10.80;99.90;;;;;;5034705;28;20182;-80
2023/12/10 10:14:54;;;;;;;20.47;2.53;;;10.70;99.90;;;;;;5025928;28;20202;-77
2023/12/10 10:17:27;;;;;;;9.93;1.83;;;10.80;99.90;;;;;;5029910;28;20208;-78
2023/12/10 10:19:54;;;;;;;11.60;2.00;;;10.70;99.90;;;;;;5030549;28;20691;-75
2023/12/10 10:22:21;;;;;;;5.20;0.97;;;;;;;;;;5032124;28;20174;-78
2023/12/10 10:24:47;;;;;;;9.83;1.70;;;;;;;;;;5024214;28;20304;-80
2023/12/10 10:27:12;;;;;;;16.10;2.80;;;11.00;99.90;;;;;;5025025;28;20262;-80
2023/12/10 10:29:40;;;;;;;10.63;1.97;;;11.00;99.90;;;;;;5029916;28;20792;-77
2023/12/10 10:32:07;;;;;;;12.07;2.03;;;10.90;99.90;;;;;;5025097;28;20189;-76
2023/12/10 10:34:34;;;;;;;9.73;2.23;;;10.90;99.90;;;;;;5022017;28;20251;-76
2023/12/10 10:36:59;;;;;;;11.87;1.63;;;11.00;99.90;;;;;;5020493;28;20177;-76
2023/12/10 10:39:26;;;;;;;7.77;1.40;;;11.10;99.90;;;;;;5025844;28;20376;-77
2023/12/10 10:41:52;;;;;;;7.40;2.10;;;;;;;;;;5026561;28;20178;-78
2023/12/10 10:44:18;;;;;;;12.43;1.67;;;11.10;99.90;;;;;;5005676;28;20296;-75
2023/12/10 10:46:44;;;;;;;7.67;1.47;;;11.20;99.90;;;;;;5031034;28;20353;-77
2023/12/10 10:49:10;;;;;;;10.17;2.00;;;10.90;99.90;;;;;;5027231;28;20178;-75
2023/12/10 10:51:36;;;;;;;4.00;0.77;;;11.30;99.90;;;;;;5020670;28;20532;-76
2023/12/10 10:54:04;;;;;;;11.83;1.67;;;11.10;99.90;;;;;;5011216;28;20641;-75
2023/12/10 10:56:30;;;;;;;9.57;1.60;;;11.10;99.90;;;;;;5030163;28;20197;-76
2023/12/10 10:58:56;;;;;;;7.17;2.10;;;11.00;99.90;;;;;;5034838;28;20246;-78
2023/12/10 11:01:40;;;;;;;4.40;0.70;;;11.30;99.90;;;;;;5011443;28;20278;-75
2023/12/10 11:04:06;;;;;;;5.63;1.00;;;;;;;;;;5029919;28;20764;-80
2023/12/10 11:06:35;;;;;;;6.70;1.00;;;11.40;99.90;;;;;;5031193;28;20188;-82
2023/12/10 11:09:01;;;;;;;9.43;1.23;;;13.10;99.90;;;;;;5034356;28;20261;-84
2023/12/10 11:11:27;;;;;;;1.77;0.40;;;;;;;;;;5007234;28;20209;-83
2023/12/10 11:13:53;;;;;;;3.67;1.00;;;11.30;99.90;;;;;;5021097;28;20272;-82
2023/12/10 11:16:23;;;;;;;3.53;0.80;;;11.30;99.90;;;;;;5041256;28;20188;-80
2023/12/10 11:18:57;;;;;;;3.40;0.53;;;11.10;99.90;;;;;;5032637;28;20205;-81
2023/12/10 11:21:23;;;;;;;0.93;0.30;;;11.30;99.90;;;;;;5030430;28;20570;-79
2023/12/10 11:23:49;;;;;;;2.73;0.83;;;11.00;99.90;;;;;;5007465;28;20185;-81
2023/12/10 11:26:15;;;;;;;3.53;0.83;;;;;;;;;;5032208;28;20221;-81
2023/12/10 11:28:42;;;;;;;1.93;0.50;;;11.20;99.90;;;;;;5037932;28;20641;-80
2023/12/10 11:31:08;;;;;;;1.83;0.40;;;11.20;99.90;;;;;;5036774;28;20327;-80
2023/12/10 11:33:40;;;;;;;1.83;0.70;;;11.40;99.90;;;;;;5031265;28;20181;-80
2023/12/10 11:36:07;;;;;;;0.70;0.20;;;11.20;99.90;;;;;;5031998;28;20239;-79
2023/12/10 11:38:33;;;;;;;1.77;0.40;;;;;;;;;;5035148;28;20185;-78
2023/12/10 11:40:59;;;;;;;2.80;0.40;;;;;;;;;;5021267;28;20187;-79
2023/12/10 11:43:26;;;;;;;0.77;0.13;;;;;;;;;;5033788;28;20269;-81
2023/12/10 11:45:55;;;;;;;0.57;0.20;;;11.50;99.90;;;;;;5040823;28;20178;-79
2023/12/10 11:48:21;;;;;;;0.93;0.33;;;12.00;99.90;;;;;;5026206;28;20187;-78
2023/12/10 11:50:48;;;;;;;1.50;0.20;;;11.90;99.90;;;;;;5032323;28;20190;-80
2023/12/10 11:53:18;;;;;;;0.87;0.30;;;12.20;99.90;;;;;;5036084;28;20193;-80
2023/12/10 11:55:44;;;;;;;2.87;1.10;;;11.80;99.90;;;;;;5042108;28;20173;-78
2023/12/10 11:58:10;;;;;;;1.27;0.50;;;;;;;;;;5058895;28;20177;-79
2023/12/10 12:00:36;;;;;;;1.27;0.50;;;12.30;99.90;;;;;;5032210;28;20237;-79
2023/12/10 12:03:06;;;;;;;3.53;2.10;;;12.60;99.90;;;;;;5024412;28;20186;-79
2023/12/10 12:05:32;;;;;;;3.33;1.03;;;12.20;99.90;;;;;;5036529;28;20265;-75
2023/12/10 12:07:59;;;;;;;1.77;0.87;;;12.00;99.90;;;;;;5023757;28;20165;-80
2023/12/10 12:10:35;;;;;;;0.90;0.30;;;12.00;99.90;;;;;;5035999;28;20210;-79
2023/12/10 12:13:01;;;;;;;0.77;0.20;;;12.10;99.90;;;;;;5031187;28;20178;-80
2023/12/10 12:15:27;;;;;;;1.13;0.33;;;12.50;99.90;;;;;;5035708;28;20231;-84
2023/12/10 12:17:53;;;;;;;1.50;0.40;;;12.40;99.90;;;;;;5029645;28;20649;-82
2023/12/10 12:20:28;;;;;;;0.60;0.20;;;12.60;99.90;;;;;;5027234;28;20696;-79
2023/12/10 12:22:54;;;;;;;1.23;0.23;;;13.00;99.90;;;;;;5035676;28;20644;-79
2023/12/10 12:25:21;;;;;;;0.30;0.30;;;15.90;99.90;;;;;;5035855;28;20225;-80
2023/12/10 12:27:47;;;;;;;0.87;0.30;;;15.00;99.90;;;;;;5039288;28;20213;-82
2023/12/10 12:30:15;;;;;;;1.33;0.30;;;14.10;99.90;;;;;;5035993;28;20208;-82
2023/12/10 12:32:40;;;;;;;1.20;0.20;;;13.90;99.90;;;;;;5036563;28;20177;-79
2023/12/10 12:35:07;;;;;;;0.95;0.32;;;13.30;99.90;;;;;;5033346;28;20640;-81
2023/12/10 12:37:33;;;;;;;1.50;0.80;;;13.60;99.90;;;;;;5034291;28;20269;-82
2023/12/10 12:39:59;;;;;;;0.30;0.10;;;13.50;99.90;;;;;;5031416;28;20241;-79
2023/12/10 12:42:25;;;;;;;1.93;0.27;;;;;;;;;;5033849;28;20190;-79
2023/12/10 12:44:52;;;;;;;1.27;0.13;;;15.60;99.90;;;;;;5054618;28;20213;-76
2023/12/10 12:47:19;;;;;;;2.17;0.40;;;;;;;;;;5037262;28;20174;-76
2023/12/10 12:49:45;;;;;;;1.48;0.47;;;14.00;99.90;;;;;;5031431;28;20186;-79
2023/12/10 12:52:11;;;;;;;6.60;0.75;;;13.90;99.90;;;;;;5047695;28;20333;-80
2023/12/10 12:54:36;;;;;;;6.60;1.50;;;13.90;99.90;;;;;;5007284;28;20229;-80
2023/12/10 12:57:02;;;;;;;5.50;1.25;;;16.10;99.90;;;;;;5029189;28;20195;-79
2023/12/10 12:59:28;;;;;;;13.15;2.30;;;16.20;99.90;;;;;;5031177;28;20216;-81
2023/12/10 13:01:55;;;;;;;16.85;2.53;;;17.30;99.90;;;;;;5031882;28;20178;-80